Archival Weather

Chicago O'Hare International

Chicago, Illinois (KORD)

Report from: Tuesday, December 27, 2022 5:51 PM CST
Current time: Saturday, June 22, 2024 3:29 AM CDT

Current weather – Weather history – Daily summaries
Weather forecast

Temperature-5.0°C (23.0°F)
Wind chill-12.4°C (9.6°F)
Dew point-8.9°C (16.0°F)
Winds 14 kts (7.2 m/s, 16.1 mph) South (170°)
Wind gusts 22 kts (11.3 m/s, 25.3 mph)
Peak wind 26 kts (13.4 m/s, 29.9 mph) South (180°) at 23:24
Visibility10 mi. (16.1 km)
Clouds Ceiling: Broken clouds 25,000 ft. (7,620 m)
Altimeter29.95 in.Hg (1014 mB)
Relative humidity74 %
Density altitude-2,501 ft. (-762 m)
Sea-level pressure101.6 kPa (1016 mB, 29.99 in.Hg)
Max temp last 6 hours-4.4°C (24.1°F)
Min temp last 6 hours-6.7°C (19.9°F)
Snow depth1.00 in. (25 mm)
Remarks Automated weather observing station with precipitation discriminator
Pressure falling more quickly
Flight conditions Visual Meteorological Conditions
Raw dataKORD 272351Z 17014G22KT 10SM BKN250 M05/M09 A2995 RMK AO2 PK WND 18026/2324 SLP156 4/001 T10501089 11044 21067 58021
An error has occurred. This application may no longer respond until reloaded. Reload 🗙